WEATHER DATA

YESTERDAY
Time Temp. Dewp. Hum. Wind dir Wind speed Wind gust Bar. 1h Prec. 24h Prec.
00:10 4.3 -1.5 65 49 0.6 1.4 1027.8 0.0000 0.0000
00:19 4.3 -1.5 65 45 0.6 1.4 1027.7 0.0000 0.0000
00:40 4.2 -1.6 65 45 0.6 1.9 1027.2 0.0000 0.0000
00:50 4.1 -1.7 65 45 0.6 1.7 1027.6 0.0000 0.0000
01:00 4.1 -1.7 65 50 0.3 0.8 1027.3 0.0000 0.0000
01:10 4.1 -1.7 65 40 0.6 1.4 1027.1 0.0000 0.0000
01:20 4 -1.7 65 53 0.3 0.8 1027.1 0.0000 0.0000
01:30 3.9 -1.8 65 45 0.6 1.1 1027 0.0000 0.0000
01:40 3.8 -2.1 64 90 0.6 2.5 1026.9 0.0000 0.0000
01:51 3.8 -1.9 65 45 0.3 1.1 1026.9 0.0000 0.0000
02:00 3.8 -1.9 65 57 0.3 0.8 1026.9 0.0000 0.0000
02:10 3.7 -2 65 56 0.3 0.8 1026.8 0.0000 0.0000
02:20 3.6 -2.1 65 45 0.3 0.8 1027 0.0000 0.0000
02:31 3.4 -2.3 65 57 0.3 0.8 1026.7 0.0000 0.0000
02:40 3.4 -2.1 66 45 0.3 0.6 1026.9 0.0000 0.0000
02:50 3.3 -2.2 66 45 0.3 0.6 1026.9 0.0000 0.0000
03:01 3.1 -2.1 67 57 0.3 0.8 1026.8 0.0000 0.0000
03:11 3 -2.6 65 45 0.3 1.4 1026.5 0.0000 0.0000
03:21 3 -2.4 66 36 0.3 0.8 1026.4 0.0000 0.0000
03:30 3 -2.6 65 40 0.6 1.4 1026.5 0.0000 0.0000
03:41 3 -2.4 66 49 0.3 0.8 1026.7 0.0000 0.0000
03:48 2.9 -2.7 65 35 0.6 1.7 1026.8 0.0000 0.0000
03:58 2.9 -2.5 66 55 0.3 0.8 1026.7 0.0000 0.0000
04:08 2.9 -2.7 65 50 0.3 0.8 1026.7 0.0000 0.0000
04:18 2.8 -2.8 65 90 0.3 0.8 1026.7 0.0000 0.0000
04:29 2.8 -2.8 65 55 0.3 1.4 1026.8 0.0000 0.0000
04:38 2.7 -2.8 65 90 0.3 0.8 1026.9 0.0000 0.0000
04:48 2.6 -2.9 65 35 0.6 1.1 1026.9 0.0000 0.0000
04:59 2.6 -2.9 65 45 0.3 0.8 1026.8 0.0000 0.0000
05:09 2.6 -2.9 65 59 0.3 0.6 1026.4 0.0000 0.0000
05:19 2.5 -3 65 60 0.3 0.8 1026.4 0.0000 0.0000
05:28 2.5 -3.2 64 45 0.3 0.8 1026.1 0.0000 0.0000
05:39 2.5 -3.4 63 90 0.3 1.1 1026.1 0.0000 0.0000
05:49 2.6 -3.1 64 48 0.6 1.1 1026.1 0.0000 0.0000
05:59 2.6 -3.1 64 41 0.6 1.9 1025.9 0.0000 0.0000
06:09 2.5 -3.2 64 48 0.3 0.8 1026 0.0000 0.0000
06:19 2.5 -3.2 64 51 0.3 1.1 1026 0.0000 0.0000
06:29 2.5 -3.4 63 51 0.6 1.4 1026 0.0000 0.0000
06:39 2.4 -3.3 64 48 0.3 0.8 1026.1 0.0000 0.0000
06:50 2.4 -3.3 64 90 0.3 0.6 1026 0.0000 0.0000
06:59 2.4 -3.3 64 52 0.3 0.6 1025.7 0.0000 0.0000
07:09 2.4 -3.5 63 45 0.3 1.1 1026 0.0000 0.0000
07:19 2.3 -3.6 63 48 0.3 1.1 1026.2 0.0000 0.0000
07:30 2.3 -3.4 64 53 0.3 0.8 1026.1 0.0000 0.0000
07:40 2.2 -3.4 64 45 0.3 0.8 1025.9 0.0000 0.0000
07:49 2.2 -3.8 62 50 0.3 1.1 1025.9 0.0000 0.0000
08:00 2.3 -3.6 63 45 0.3 1.1 1026.1 0.0000 0.0000
08:10 2.3 -3.7 62 90 0.3 0.8 1025.8 0.0000 0.0000
08:20 2.3 -3.7 62 50 0.3 0.8 1025.8 0.0000 0.0000
08:30 2.4 -3.7 62 56 0.3 1.7 1025.8 0.0000 0.0000
08:40 2.4 -3.5 63 45 0.3 1.1 1026 0.0000 0.0000
08:50 2.4 -3.3 64 59 0.3 0.8 1025.8 0.0000 0.0000
09:00 2.4 -3.3 64 55 0.3 1.1 1025.6 0.0000 0.0000
09:11 2.5 -3.2 64 53 0.3 0.8 1025.4 0.0000 0.0000
09:20 2.6 -3.1 64 90 0.3 1.1 1025.3 0.0000 0.0000
09:30 2.7 -3.4 62 59 0.3 1.1 1025.3 0.0000 0.0000
09:40 3 -3.2 62 50 0.6 1.7 1025.5 0.0000 0.0000
09:51 3.1 -2.9 63 52 0.6 1.4 1025.5 0.0000 0.0000
10:01 3.3 -2.9 62 90 0.3 0.8 1025.6 0.0000 0.0000
10:10 3.4 -2.6 63 50 0.6 1.1 1025.6 0.0000 0.0000
10:21 3.7 -2.8 61 42 0.6 1.9 1025.4 0.0000 0.0000
10:31 4 -2.7 60 47 0.6 1.7 1025.2 0.0000 0.0000
10:41 4.3 -2.9 58 48 0.8 2.5 1024.9 0.0000 0.0000
10:51 4.6 -2.6 58 63 0.6 1.7 1024.8 0.0000 0.0000
11:01 4.9 -2.4 58 67 0.6 1.1 1024.7 0.0000 0.0000
11:11 5.4 -2.1 57 90 0.3 1.1 1024.5 0.0000 0.0000
11:21 6 -1.9 56 90 0.3 1.1 1024.3 0.0000 0.0000
11:32 6.8 -1.6 54 90 0.6 1.7 1024.4 0.0000 0.0000
11:42 7.3 -1.9 51 153 0.6 1.7 1024.3 0.0000 0.0000
11:51 7.5 -1.7 51 68 0.6 2.5 1024.2 0.0000 0.0000
12:01 7.9 -1.7 50 59 0.6 1.9 1024 0.0000 0.0000
12:12 8.3 -2.3 46 64 0.6 2.2 1023.9 0.0000 0.0000
12:22 8.5 -1.4 49 45 0.6 2.8 1023.9 0.0000 0.0000
12:31 8.8 -1.9 46 111 0.6 1.7 1023.6 0.0000 0.0000
12:42 9.1 -2.2 44 47 0.6 1.9 1023.6 0.0000 0.0000
12:52 9.4 -1.7 45 60 0.3 1.4 1023.5 0.0000 0.0000
13:02 9.9 -1.3 45 63 0.6 1.4 1023.3 0.0000 0.0000
13:12 10.1 -1.1 45 71 0.6 1.7 1023.2 0.0000 0.0000
13:22 10.2 -1.3 44 49 0.8 2.8 1023.2 0.0000 0.0000
13:32 10.2 -1.6 43 45 0.6 1.4 1023.2 0.0000 0.0000
13:41 10.5 -0.5 46 45 0.3 0.8 1022.9 0.0000 0.0000
13:52 10.8 -0.3 46 90 0.3 1.1 1022.6 0.0000 0.0000
14:02 11.3 -0.7 43 42 0.8 1.7 1022.7 0.0000 0.0000
14:12 11.2 -0.8 43 35 1.1 2.8 1022.5 0.0000 0.0000
14:22 11.1 -0.9 43 32 0.6 1.7 1022.6 0.0000 0.0000
14:32 11.3 -1 42 40 0.6 1.9 1022.4 0.0000 0.0000
14:42 11.6 0.4 46 27 0.6 1.7 1022.3 0.0000 0.0000
14:52 11.8 0.6 46 42 0.6 1.7 1022.1 0.0000 0.0000
15:03 11.7 0.5 46 45 0.6 1.7 1022 0.0000 0.0000
15:12 11.4 0.2 46 53 0.8 1.7 1021.9 0.0000 0.0000
15:22 11 0.1 47 54 0.6 2.5 1021.9 0.0000 0.0000
15:33 10.5 -0.3 47 49 0.8 2.2 1021.9 0.0000 0.0000
15:43 9.9 -0.5 48 52 0.6 1.7 1021.9 0.0000 0.0000
15:53 9.4 -0.9 48 38 0.6 1.4 1021.8 0.0000 0.0000
16:02 9 -0.8 50 58 0.6 1.7 1021.7 0.0000 0.0000
16:13 8.6 -1.1 50 50 0.6 1.1 1021.5 0.0000 0.0000
16:23 8.2 -1.2 51 54 0.6 1.9 1021.5 0.0000 0.0000
16:33 7.7 -1.6 51 52 0.8 2.5 1021.6 0.0000 0.0000
16:43 7.3 -1.7 52 42 0.6 1.1 1021.4 0.0000 0.0000
16:53 7 -1.7 53 50 0.8 1.9 1021.4 0.0000 0.0000
17:03 6.7 -1.9 53 45 0.6 1.7 1021.3 0.0000 0.0000
17:08 6.5 -2.1 53 53 0.8 2.2 1021.3 0.0000 0.0000
17:19 6.2 -2.4 53 54 0.8 1.7 1021.4 0.0000 0.0000
17:29 6 -2.3 54 27 0.6 1.4 1021.3 0.0000 0.0000
17:39 5.9 -2.4 54 348 0.3 1.1 1021.2 0.0000 0.0000
17:48 5.7 -2.5 54 28 0.6 1.4 1021.2 0.0000 0.0000
17:59 5.5 -2.5 55 45 0.6 1.9 1021 0.0000 0.0000
18:09 5.3 -2.7 55 38 0.6 1.7 1020.8 0.0000 0.0000
18:19 5.2 -2.7 55 45 0.6 1.4 1020.6 0.0000 0.0000
18:29 5 -2.9 55 45 0.3 1.4 1020.5 0.0000 0.0000
18:44 4.8 -3.1 55 42 0.6 1.7 1020.6 0.0000 0.0000
18:54 4.8 -3.1 55 49 0.6 1.7 1020.6 0.0000 0.0000
19:15 4.6 -3.7 53 45 0.6 1.7 1020.8 0.0000 0.0000
19:24 4.5 -4 52 38 0.8 1.9 1020.7 0.0000 0.0000
19:34 4.4 -4.1 52 42 0.6 1.7 1020.8 0.0000 0.0000
19:45 4.3 -4.4 51 43 0.8 1.7 1020.7 0.0000 0.0000
19:55 4.1 -4.8 50 41 0.8 2.2 1020.7 0.0000 0.0000
20:04 3.9 -4.7 51 39 0.8 1.7 1020.8 0.0000 0.0000
20:15 3.7 -4.6 52 39 0.6 1.1 1020.7 0.0000 0.0000
20:25 3.4 -4.9 52 38 0.6 1.4 1020.8 0.0000 0.0000
20:35 3.3 -5 52 45 0.6 1.7 1021 0.0000 0.0000
20:53 2.9 -5.3 52 36 0.6 1.4 1021 0.0000 0.0000
21:02 2.7 -5.2 53 39 0.6 1.7 1021 0.0000 0.0000
21:13 2.6 -5.3 53 45 0.3 0.8 1021 0.0000 0.0000
21:23 2.6 -5.1 54 38 0.3 0.8 1021 0.0000 0.0000
21:33 2.4 -5.3 54 41 0.3 0.8 1021 0.0000 0.0000
21:43 2.3 -5.1 55 45 0.3 0.8 1020.8 0.0000 0.0000
21:53 2.2 -5.2 55 45 0.3 0.8 1020.9 0.0000 0.0000
22:03 2 -5.2 56 45 0.3 0.8 1020.9 0.0000 0.0000
22:13 1.8 -5.1 57 52 0.3 0.8 1020.7 0.0000 0.0000
22:24 1.6 -5.3 57 47 0.6 1.1 1020.6 0.0000 0.0000
22:33 1.5 -5.6 56 38 0.6 1.4 1020.7 0.0000 0.0000
22:43 1.3 -5.6 57 45 0.6 1.7 1020.5 0.0000 0.0000
22:53 1.3 -5.8 56 45 0.6 1.1 1020.4 0.0000 0.0000
23:04 1.2 -5.9 56 42 0.6 1.1 1020.3 0.0000 0.0000
23:14 1.1 -5.7 57 34 0.6 1.1 1020.1 0.0000 0.0000
23:23 1.2 -5.4 58 32 0.6 1.4 1020.2 0.0000 0.0000
23:34 1.2 -5.2 59 41 0.3 0.8 1020.1 0.0000 0.0000
23:44 1.2 -4.9 61 90 0.3 0.6 1019.8 0.0000 0.0000
23:54 1.3 -4.8 61 90 0.3 0.8 1019.8 0.0000 0.0000

DAY STATISTIC

2018-11-18
TEMPERATURE
AVERAGE
4.7
HIGH
11.8
14:52
LOW
1.1
23:14
PRESSURE
AVERAGE
1023.8
HIGH
1027.8
00:10
LOW
1019.8
23:44
DEWPOINT
AVERAGE
-2.8
HIGH
0.6
14:52
LOW
-5.9
23:04
HUMIDITY
AVERAGE
57
HIGH
67
03:01
LOW
42
14:32
WIND SPEED
AVERAGE
0.5
HIGH
1.1
14:12
WIND GUST
AVERAGE
1.4
HIGH
2.8
12:22
WIND DIRECTION
PREVAILING
NE
86.4%
N
0.7
NE
86.4
E
12.1
SE
0.7
S
0.0
SW
0.0
W
0.0
NW
0.0
PRECIPITATION
RAIN HOUR
0.0
RAIN DAY
0.0
TEMPERATURE (°C)
LOW
1.1
HIGH
11.8
AVERAGE
4.7
PRESSURE (hpa)
LOW
1019.8
HIGH
1027.8
AVERAGE
1023.8
DEVICE